createdAt,value
2018-04-13T00:00:35.618Z,29.73
2018-04-13T00:03:03.168Z,29.83
2018-04-13T00:05:30.827Z,28.43
2018-04-13T00:07:58.376Z,27.17
2018-04-13T00:10:26.682Z,26.77
2018-04-13T00:12:54.273Z,29.60
2018-04-13T00:15:21.903Z,28.07
2018-04-13T00:17:49.467Z,27.10
2018-04-13T00:20:17.003Z,27.63
2018-04-13T00:22:44.579Z,29.53
2018-04-13T00:25:12.080Z,28.33
2018-04-13T00:27:41.116Z,31.67
2018-04-13T00:30:08.616Z,32.00
2018-04-13T00:32:36.217Z,33.67
2018-04-13T00:35:03.771Z,33.80
2018-04-13T00:37:32.032Z,31.73
2018-04-13T00:40:00.304Z,35.87
2018-04-13T00:42:27.901Z,33.93
2018-04-13T00:44:55.422Z,34.40
2018-04-13T00:47:22.928Z,36.13
2018-04-13T00:49:50.585Z,35.70
2018-04-13T00:52:18.084Z,36.77
2018-04-13T00:54:45.612Z,38.30
2018-04-13T00:57:13.438Z,38.00
2018-04-13T00:59:41.711Z,39.57
2018-04-13T01:02:09.999Z,39.70
2018-04-13T01:04:38.286Z,36.73
2018-04-13T01:07:11.534Z,34.57
2018-04-13T01:09:39.094Z,36.90
2018-04-13T01:12:06.614Z,37.93
2018-04-13T01:14:34.133Z,39.37
2018-04-13T01:17:01.818Z,37.73
2018-04-13T01:19:29.324Z,37.83
2018-04-13T01:21:56.856Z,37.30
2018-04-13T01:24:25.289Z,37.10
2018-04-13T01:26:52.765Z,39.70
2018-04-13T01:29:20.288Z,39.80
2018-04-13T01:31:48.602Z,37.87
2018-04-13T01:34:16.146Z,39.53
2018-04-13T01:36:43.650Z,39.37
2018-04-13T01:39:11.170Z,41.50
2018-04-13T01:41:38.731Z,39.33
2018-04-13T01:44:06.214Z,40.37
2018-04-13T01:46:33.736Z,37.97
2018-04-13T01:49:01.331Z,39.80
2018-04-13T01:51:28.877Z,37.07
2018-04-13T01:53:56.401Z,38.03
2018-04-13T01:56:24.656Z,38.90
2018-04-13T01:58:52.944Z,38.20
2018-04-13T02:01:21.208Z,37.03
2018-04-13T02:03:49.502Z,37.63
2018-04-13T02:06:17.021Z,37.10
2018-04-13T02:08:44.578Z,35.67
2018-04-13T02:11:12.112Z,36.50
2018-04-13T02:13:39.636Z,34.40
2018-04-13T02:16:07.210Z,35.07
2018-04-13T02:18:34.741Z,34.30
2018-04-13T02:21:03.000Z,34.33
2018-04-13T02:23:31.301Z,32.97
2018-04-13T02:25:58.838Z,32.67
2018-04-13T02:28:27.135Z,35.57
2018-04-13T02:30:54.702Z,31.60
2018-04-13T02:33:22.194Z,33.17
2018-04-13T02:35:49.828Z,33.70
2018-04-13T02:38:17.334Z,33.00
2018-04-13T02:40:44.828Z,32.93
2018-04-13T02:43:12.434Z,33.43
2018-04-13T02:45:39.947Z,33.20
2018-04-13T02:48:07.463Z,32.20
2018-04-13T02:50:35.004Z,33.33
2018-04-13T02:53:02.578Z,41.97
2018-04-13T02:55:30.090Z,39.63
2018-04-13T02:57:57.597Z,32.80
2018-04-13T03:00:26.027Z,33.50
2018-04-13T03:02:53.508Z,32.53
2018-04-13T03:05:21.309Z,32.83
2018-04-13T03:07:49.613Z,32.50
2018-04-13T03:10:17.129Z,33.07
2018-04-13T03:12:44.707Z,34.00
2018-04-13T03:15:13.015Z,31.77
2018-04-13T03:17:40.543Z,32.50
2018-04-13T03:20:08.836Z,34.07
2018-04-13T03:22:36.328Z,32.47
2018-04-13T03:25:03.833Z,39.70
2018-04-13T03:27:32.139Z,31.80
2018-04-13T03:29:59.674Z,33.17
2018-04-13T03:32:27.967Z,31.60
2018-04-13T03:34:55.462Z,35.33
2018-04-13T03:37:22.985Z,32.37
2018-04-13T03:39:50.497Z,32.90
2018-04-13T03:42:18.119Z,32.50
2018-04-13T03:44:45.633Z,30.97
2018-04-13T03:47:13.901Z,32.40
2018-04-13T03:49:42.189Z,32.53
2018-04-13T03:52:10.469Z,29.70
2018-04-13T03:54:38.342Z,29.27
2018-04-13T03:57:05.882Z,29.53
2018-04-13T03:59:34.285Z,28.47
2018-04-13T04:02:01.817Z,28.90
2018-04-13T04:04:30.176Z,28.10
2018-04-13T04:06:57.718Z,28.10
2018-04-13T04:09:25.253Z,27.47
2018-04-13T04:11:52.800Z,28.60
2018-04-13T04:14:20.302Z,26.23
2018-04-13T04:16:49.444Z,27.73
2018-04-13T04:19:16.980Z,27.10
2018-04-13T04:21:57.230Z,24.70
2018-04-13T04:24:37.350Z,35.03
2018-04-13T04:27:05.704Z,35.63
2018-04-13T04:29:33.249Z,25.10
2018-04-13T04:32:00.741Z,22.10
2018-04-13T04:34:28.327Z,23.73
2018-04-13T04:36:56.914Z,21.80
2018-04-13T04:39:25.232Z,21.50
2018-04-13T04:41:52.728Z,22.37
2018-04-13T04:44:21.057Z,21.30
2018-04-13T04:46:48.625Z,20.77
2018-04-13T04:49:16.465Z,23.30
2018-04-13T04:51:44.115Z,20.97
2018-04-13T04:54:11.619Z,20.00
2018-04-13T04:56:39.241Z,19.03
2018-04-13T04:59:07.520Z,18.67
2018-04-13T05:01:35.055Z,19.40
2018-04-13T05:04:03.400Z,19.53
2018-04-13T05:06:31.030Z,19.60
2018-04-13T05:08:58.566Z,18.93
2018-04-13T05:11:26.818Z,18.00
2018-04-13T05:13:55.220Z,19.33
2018-04-13T05:16:22.750Z,15.87
2018-04-13T05:18:50.331Z,18.67
2018-04-13T05:21:18.639Z,16.60
2018-04-13T05:23:46.141Z,16.87
2018-04-13T05:26:13.694Z,15.00
2018-04-13T05:28:41.863Z,15.67
2018-04-13T05:31:09.445Z,15.37
2018-04-13T05:33:37.836Z,14.07
2018-04-13T05:36:05.355Z,15.80
2018-04-13T05:38:33.080Z,14.80
2018-04-13T05:41:00.609Z,14.97
2018-04-13T05:43:28.400Z,14.47
2018-04-13T05:45:55.912Z,13.98
2018-04-13T05:48:25.121Z,14.60
2018-04-13T05:50:53.436Z,12.90
2018-04-13T05:53:20.985Z,13.43
2018-04-13T05:55:50.007Z,13.63
2018-04-13T05:58:17.581Z,15.17
2018-04-13T06:00:45.104Z,15.07
2018-04-13T06:03:12.691Z,15.17
2018-04-13T06:05:40.315Z,15.93
2018-04-13T06:08:07.805Z,29.80
2018-04-13T06:10:35.352Z,17.57
2018-04-13T06:13:02.900Z,13.80
2018-04-13T06:15:30.425Z,13.37
2018-04-13T06:17:57.959Z,15.80
2018-04-13T06:20:25.562Z,15.83
2018-04-13T06:22:53.057Z,15.00
2018-04-13T06:25:20.562Z,15.17
2018-04-13T06:27:48.149Z,13.90
2018-04-13T06:30:15.798Z,13.90
2018-04-13T06:32:44.294Z,14.00
2018-04-13T06:35:11.816Z,15.13
2018-04-13T06:37:39.394Z,14.10
2018-04-13T06:40:06.903Z,13.97
2018-04-13T06:42:34.493Z,13.70
2018-04-13T06:45:02.028Z,12.63
2018-04-13T06:47:30.346Z,13.97
2018-04-13T06:49:57.901Z,14.60
2018-04-13T06:52:25.403Z,16.20
2018-04-13T06:54:53.705Z,15.57
2018-04-13T06:57:22.102Z,16.67
2018-04-13T06:59:49.649Z,14.77
2018-04-13T07:02:17.156Z,14.80
2018-04-13T07:04:44.697Z,16.13
2018-04-13T07:07:12.246Z,18.13
2018-04-13T07:09:39.765Z,17.53
2018-04-13T07:12:08.077Z,16.43
2018-04-13T07:14:35.572Z,14.07
2018-04-13T07:17:03.098Z,14.80
2018-04-13T07:19:30.627Z,12.87
2018-04-13T07:21:58.939Z,11.20
2018-04-13T07:24:26.468Z,10.10
2018-04-13T07:26:53.982Z,9.40
2018-04-13T07:29:21.519Z,8.27
2018-04-13T07:31:49.409Z,8.23
2018-04-13T07:34:17.089Z,8.67
2018-04-13T07:36:45.400Z,8.60
2018-04-13T07:39:12.924Z,12.23
2018-04-13T07:41:41.264Z,28.20
2018-04-13T07:44:08.797Z,14.90
2018-04-13T07:46:36.643Z,10.40
2018-04-13T07:49:03.961Z,10.90
2018-04-13T07:51:31.481Z,9.77
2018-04-13T07:53:59.032Z,9.70
2018-04-13T07:56:26.588Z,11.07
2018-04-13T07:58:54.210Z,11.03
2018-04-13T08:01:22.517Z,11.50
2018-04-13T08:03:50.292Z,12.00
2018-04-13T08:06:17.817Z,11.00
2018-04-13T08:08:46.122Z,11.50
2018-04-13T08:11:13.642Z,11.53
2018-04-13T08:13:41.969Z,10.43
2018-04-13T08:16:09.489Z,10.67
2018-04-13T08:18:37.019Z,10.60
2018-04-13T08:21:04.827Z,12.00
2018-04-13T08:23:32.360Z,10.63
2018-04-13T08:26:00.641Z,11.60
2018-04-13T08:28:28.945Z,17.13
2018-04-13T08:30:56.510Z,14.27
2018-04-13T08:33:24.125Z,14.63
2018-04-13T08:35:51.622Z,14.20
2018-04-13T08:38:19.789Z,14.53
2018-04-13T08:40:47.642Z,14.37
2018-04-13T08:43:15.329Z,12.20
2018-04-13T08:45:43.716Z,11.50
2018-04-13T08:48:11.210Z,13.10
2018-04-13T08:50:39.569Z,14.47
2018-04-13T08:53:07.091Z,15.00
2018-04-13T08:55:34.676Z,14.20
2018-04-13T08:58:02.217Z,14.00
2018-04-13T09:00:29.999Z,13.57
2018-04-13T09:02:57.597Z,12.67
2018-04-13T09:05:25.889Z,13.40
2018-04-13T09:07:53.446Z,16.43
2018-04-13T09:10:20.960Z,14.33
2018-04-13T09:12:48.776Z,15.47
2018-04-13T09:15:16.460Z,14.30
2018-04-13T09:17:44.081Z,14.10
2018-04-13T09:20:12.363Z,11.20
2018-04-13T09:22:39.894Z,12.50
2018-04-13T09:25:08.176Z,14.37
2018-04-13T09:27:36.457Z,16.53
2018-04-13T09:30:04.737Z,32.77
2018-04-13T09:32:33.109Z,23.20
2018-04-13T09:35:01.421Z,23.60
2018-04-13T09:37:29.011Z,23.90
2018-04-13T09:39:57.276Z,26.30
2018-04-13T09:42:24.890Z,23.37
2018-04-13T09:44:53.158Z,25.03
2018-04-13T09:47:20.687Z,27.93
2018-04-13T09:49:48.220Z,27.53
2018-04-13T09:52:15.840Z,25.47
2018-04-13T09:54:44.237Z,21.60
2018-04-13T09:57:11.766Z,24.90
2018-04-13T09:59:40.076Z,23.77
2018-04-13T10:02:07.586Z,24.43
2018-04-13T10:04:40.729Z,20.03
2018-04-13T10:07:08.235Z,19.10
2018-04-13T10:09:36.522Z,20.27
2018-04-13T10:12:04.826Z,19.03
2018-04-13T10:14:32.368Z,14.40
2018-04-13T10:16:59.945Z,14.83
2018-04-13T10:19:27.695Z,14.23
2018-04-13T10:21:55.203Z,10.20
2018-04-13T10:24:22.804Z,10.17
2018-04-13T10:26:50.389Z,11.13
2018-04-13T10:29:18.673Z,11.27
2018-04-13T10:31:46.215Z,11.43
2018-04-13T10:34:13.852Z,11.30
2018-04-13T10:36:41.498Z,10.43
2018-04-13T10:39:09.861Z,15.63
2018-04-13T10:41:37.403Z,11.60
2018-04-13T10:44:04.937Z,10.63
2018-04-13T10:46:32.476Z,8.87
2018-04-13T10:49:00.044Z,7.40
2018-04-13T10:51:27.619Z,7.50
2018-04-13T10:53:55.253Z,6.83
2018-04-13T10:56:23.570Z,6.70
2018-04-13T10:58:51.113Z,7.80
2018-04-13T11:01:18.614Z,5.27
2018-04-13T11:03:46.188Z,6.13
2018-04-13T11:06:14.481Z,5.50
2018-04-13T11:08:41.989Z,5.50
2018-04-13T11:11:09.513Z,7.07
2018-04-13T11:13:37.036Z,4.53
2018-04-13T11:16:04.603Z,5.73
2018-04-13T11:18:32.180Z,7.23
2018-04-13T11:20:59.734Z,8.20
2018-04-13T11:23:27.349Z,7.53
2018-04-13T11:25:54.868Z,7.00
2018-04-13T11:28:22.396Z,7.63
2018-04-13T11:30:49.927Z,5.57
2018-04-13T11:33:17.527Z,6.33
2018-04-13T11:35:45.065Z,5.53
2018-04-13T11:38:12.658Z,5.23
2018-04-13T11:40:40.928Z,4.97
2018-04-13T11:43:08.585Z,4.87
2018-04-13T11:45:36.196Z,5.70
2018-04-13T11:48:03.709Z,4.80
2018-04-13T11:50:31.221Z,5.07
2018-04-13T11:52:59.744Z,5.90
2018-04-13T11:55:27.273Z,5.37
2018-04-13T11:57:56.238Z,5.00
2018-04-13T12:00:23.741Z,5.37
2018-04-13T12:02:51.324Z,5.10
2018-04-13T12:05:18.867Z,19.10
2018-04-13T12:07:46.402Z,8.83
2018-04-13T12:10:13.995Z,5.13
2018-04-13T12:12:41.551Z,6.40
2018-04-13T12:15:09.108Z,5.50
2018-04-13T12:17:36.617Z,4.97
2018-04-13T12:20:05.817Z,6.13
2018-04-13T12:22:34.112Z,5.20
2018-04-13T12:25:01.608Z,6.10
2018-04-13T12:27:29.882Z,5.60
2018-04-13T12:29:57.419Z,5.10
2018-04-13T12:32:24.941Z,5.60
2018-04-13T12:34:53.281Z,5.70
2018-04-13T12:37:20.794Z,4.47
2018-04-13T12:39:49.219Z,5.33
2018-04-13T12:42:16.741Z,3.63
2018-04-13T12:44:44.257Z,4.20
2018-04-13T12:47:12.727Z,4.10
2018-04-13T12:49:40.272Z,3.20
2018-04-13T12:52:07.819Z,3.87
2018-04-13T12:54:35.541Z,3.80
2018-04-13T12:57:03.655Z,3.53
2018-04-13T12:59:31.097Z,3.20
2018-04-13T13:01:58.641Z,3.30
2018-04-13T13:04:26.165Z,13.10
2018-04-13T13:06:54.467Z,7.03
2018-04-13T13:09:22.127Z,3.80
2018-04-13T13:11:49.631Z,3.50
2018-04-13T13:14:17.360Z,3.43
2018-04-13T13:16:44.874Z,3.87
2018-04-13T13:19:13.214Z,3.77
2018-04-13T13:21:40.949Z,3.13
2018-04-13T13:24:08.461Z,3.33
2018-04-13T13:26:36.069Z,3.60
2018-04-13T13:29:03.697Z,3.67
2018-04-13T13:31:31.208Z,3.90
2018-04-13T13:33:58.760Z,3.90
2018-04-13T13:36:26.333Z,4.03
2018-04-13T13:38:53.824Z,3.70
2018-04-13T13:41:21.340Z,4.53
2018-04-13T13:43:48.861Z,4.60
2018-04-13T13:46:16.362Z,4.73
2018-04-13T13:48:43.936Z,5.23
2018-04-13T13:51:11.429Z,3.80
2018-04-13T13:53:39.008Z,4.00
2018-04-13T13:56:06.716Z,4.30
2018-04-13T13:58:34.315Z,5.27
2018-04-13T14:01:01.817Z,4.23
2018-04-13T14:03:30.269Z,4.40
2018-04-13T14:05:57.866Z,4.57
2018-04-13T14:08:25.427Z,4.40
2018-04-13T14:10:52.925Z,4.27
2018-04-13T14:13:20.583Z,4.27
2018-04-13T14:15:48.130Z,4.53
2018-04-13T14:18:15.680Z,4.83
2018-04-13T14:20:43.999Z,7.07
2018-04-13T14:23:12.002Z,80.97
2018-04-13T14:25:39.595Z,6.07
2018-04-13T14:28:07.160Z,4.67
2018-04-13T14:30:35.008Z,4.30
2018-04-13T14:33:03.309Z,4.60
2018-04-13T14:35:30.839Z,3.90
2018-04-13T14:37:59.184Z,4.60
2018-04-13T14:40:37.666Z,5.23
2018-04-13T14:43:05.177Z,5.53
2018-04-13T14:45:32.685Z,4.83
2018-04-13T14:48:00.239Z,4.70
2018-04-13T14:50:27.749Z,5.60
2018-04-13T14:52:56.074Z,5.10
2018-04-13T14:55:23.615Z,4.73
2018-04-13T14:57:51.488Z,4.00
2018-04-13T15:00:18.989Z,5.70
2018-04-13T15:02:46.582Z,5.23
2018-04-13T15:05:14.947Z,5.80
2018-04-13T15:07:43.370Z,4.50
2018-04-13T15:10:12.698Z,5.30
2018-04-13T15:12:40.361Z,13.87
2018-04-13T15:15:08.207Z,93.33
2018-04-13T15:17:35.753Z,11.90
2018-04-13T15:20:03.249Z,7.77
2018-04-13T15:22:30.791Z,8.77
2018-04-13T15:24:58.315Z,10.10
2018-04-13T15:27:25.853Z,6.23
2018-04-13T15:29:54.259Z,5.97
2018-04-13T15:32:21.816Z,5.80
2018-04-13T15:34:49.355Z,5.93
2018-04-13T15:37:17.638Z,5.30
2018-04-13T15:39:45.175Z,6.23
2018-04-13T15:42:13.460Z,8.40
2018-04-13T15:44:41.776Z,6.00
2018-04-13T15:47:09.329Z,4.60
2018-04-13T15:49:36.862Z,6.13
2018-04-13T15:52:04.427Z,5.40
2018-04-13T15:54:31.977Z,5.40
2018-04-13T15:56:59.526Z,5.83
2018-04-13T15:59:27.840Z,5.53
2018-04-13T16:01:55.408Z,6.00
2018-04-13T16:04:23.652Z,6.00
2018-04-13T16:06:51.231Z,6.13
2018-04-13T16:09:18.884Z,5.33
2018-04-13T16:11:46.442Z,6.90
2018-04-13T16:14:13.981Z,6.23
2018-04-13T16:16:41.511Z,6.10
2018-04-13T16:19:09.065Z,5.40
2018-04-13T16:21:36.605Z,5.33
2018-04-13T16:24:04.143Z,5.10
2018-04-13T16:26:31.664Z,5.60
2018-04-13T16:29:00.085Z,6.23
2018-04-13T16:31:27.780Z,7.10
2018-04-13T16:33:55.365Z,6.83
2018-04-13T16:36:23.667Z,21.10
2018-04-13T16:38:51.182Z,22.17
2018-04-13T16:41:19.899Z,8.93
2018-04-13T16:43:47.954Z,6.50
2018-04-13T16:46:16.233Z,7.47
2018-04-13T16:48:45.253Z,9.03
2018-04-13T16:51:12.791Z,11.47
2018-04-13T16:53:40.308Z,7.83
2018-04-13T16:56:07.853Z,9.20
2018-04-13T16:58:35.403Z,9.10
2018-04-13T17:01:02.946Z,8.00
2018-04-13T17:03:30.738Z,12.03
2018-04-13T17:05:58.241Z,10.87
2018-04-13T17:08:26.218Z,8.90
2018-04-13T17:10:53.716Z,8.80
2018-04-13T17:13:21.274Z,12.17
2018-04-13T17:15:48.984Z,9.83
2018-04-13T17:18:16.505Z,9.77
2018-04-13T17:20:44.066Z,9.70
2018-04-13T17:23:11.627Z,10.60
2018-04-13T17:25:39.208Z,9.73
2018-04-13T17:28:07.470Z,8.67
2018-04-13T17:30:35.863Z,9.03
2018-04-13T17:33:04.154Z,10.40
2018-04-13T17:35:31.708Z,9.57
2018-04-13T17:37:59.278Z,9.90
2018-04-13T17:40:27.044Z,9.07
2018-04-13T17:42:54.555Z,9.23
2018-04-13T17:45:22.857Z,9.37
2018-04-13T17:47:50.382Z,10.17
2018-04-13T17:50:17.885Z,9.57
2018-04-13T17:52:45.401Z,8.93
2018-04-13T17:55:13.022Z,9.83
2018-04-13T17:57:40.663Z,10.70
2018-04-13T18:00:08.163Z,8.67
2018-04-13T18:02:36.470Z,10.53
2018-04-13T18:05:04.817Z,10.07
2018-04-13T18:07:32.310Z,10.50
2018-04-13T18:09:59.900Z,9.37
2018-04-13T18:12:27.399Z,9.20
2018-04-13T18:14:55.506Z,11.10
2018-04-13T18:17:24.558Z,10.13
2018-04-13T18:19:52.081Z,11.83
2018-04-13T18:22:19.622Z,11.10
2018-04-13T18:24:47.183Z,10.50
2018-04-13T18:27:14.689Z,11.33
2018-04-13T18:29:42.290Z,8.73
2018-04-13T18:32:09.815Z,11.90
2018-04-13T18:34:37.365Z,11.60
2018-04-13T18:37:04.903Z,10.80
2018-04-13T18:39:32.460Z,11.70
2018-04-13T18:42:00.101Z,11.00
2018-04-13T18:44:27.613Z,10.80
2018-04-13T18:46:55.963Z,11.93
2018-04-13T18:49:24.205Z,11.00
2018-04-13T18:51:51.771Z,11.70
2018-04-13T18:54:20.174Z,10.90
2018-04-13T18:56:48.519Z,11.60
2018-04-13T18:59:16.038Z,10.63
2018-04-13T19:01:44.321Z,11.07
2018-04-13T19:04:12.618Z,10.53
2018-04-13T19:06:40.173Z,10.87
2018-04-13T19:09:07.680Z,11.70
2018-04-13T19:11:35.602Z,12.17
2018-04-13T19:14:03.470Z,11.63
2018-04-13T19:16:30.989Z,10.70
2018-04-13T19:18:58.527Z,11.93
2018-04-13T19:21:26.080Z,10.50
2018-04-13T19:23:53.612Z,9.67
2018-04-13T19:26:21.178Z,11.07
2018-04-13T19:28:48.723Z,10.43
2018-04-13T19:31:16.238Z,10.30
2018-04-13T19:33:43.780Z,10.33
2018-04-13T19:36:11.326Z,11.10
2018-04-13T19:38:38.897Z,12.47
2018-04-13T19:41:06.355Z,12.13
2018-04-13T19:43:33.972Z,12.87
2018-04-13T19:46:01.616Z,13.33
2018-04-13T19:48:29.892Z,12.70
2018-04-13T19:50:58.537Z,14.70
2018-04-13T19:53:26.854Z,13.40
2018-04-13T19:55:54.410Z,12.77
2018-04-13T19:58:22.820Z,13.47
2018-04-13T20:00:50.388Z,14.13
2018-04-13T20:03:18.226Z,12.73
2018-04-13T20:05:45.732Z,13.73
2018-04-13T20:08:13.323Z,13.40
2018-04-13T20:10:41.644Z,14.10
2018-04-13T20:13:09.189Z,11.70
2018-04-13T20:15:36.695Z,11.43
2018-04-13T20:18:04.989Z,10.80
2018-04-13T20:20:33.607Z,10.80
2018-04-13T20:23:01.121Z,12.00
2018-04-13T20:25:29.446Z,11.10
2018-04-13T20:27:56.971Z,10.50
2018-04-13T20:30:24.549Z,12.10
2018-04-13T20:32:52.071Z,11.17
2018-04-13T20:35:20.389Z,13.03
2018-04-13T20:37:47.948Z,15.60
2018-04-13T20:40:15.698Z,15.93
2018-04-13T20:42:43.205Z,16.10
2018-04-13T20:45:10.800Z,15.77
2018-04-13T20:47:39.215Z,16.73
2018-04-13T20:50:06.860Z,15.93
2018-04-13T20:52:34.502Z,16.43
2018-04-13T20:55:02.823Z,14.93
2018-04-13T20:57:30.433Z,13.80
2018-04-13T20:59:58.009Z,12.77
2018-04-13T21:02:25.600Z,10.73
2018-04-13T21:04:53.160Z,12.87
2018-04-13T21:07:20.777Z,11.77
2018-04-13T21:09:48.290Z,12.13
2018-04-13T21:12:15.837Z,13.43
2018-04-13T21:14:43.383Z,12.87
2018-04-13T21:17:10.992Z,13.20
2018-04-13T21:19:39.321Z,13.67
2018-04-13T21:22:06.860Z,13.73
2018-04-13T21:24:34.411Z,12.60
2018-04-13T21:27:02.016Z,11.90
2018-04-13T21:29:29.526Z,13.47
2018-04-13T21:31:57.235Z,12.90
2018-04-13T21:34:24.825Z,13.10
2018-04-13T21:36:53.127Z,14.17
2018-04-13T21:39:20.678Z,13.60
2018-04-13T21:41:48.211Z,13.30
2018-04-13T21:44:16.492Z,12.37
2018-04-13T21:46:44.762Z,12.63
2018-04-13T21:49:24.058Z,13.17
2018-04-13T21:51:51.641Z,14.30
2018-04-13T21:54:19.223Z,14.00
2018-04-13T21:56:46.766Z,15.30
2018-04-13T21:59:15.132Z,13.63
2018-04-13T22:01:42.767Z,14.63
2018-04-13T22:04:10.325Z,15.13
2018-04-13T22:06:48.982Z,13.50
2018-04-13T22:09:17.354Z,13.80
2018-04-13T22:11:46.307Z,14.93
2018-04-13T22:14:25.670Z,14.67
2018-04-13T22:16:53.305Z,12.30
2018-04-13T22:19:21.041Z,12.87
2018-04-13T22:21:48.570Z,11.23
2018-04-13T22:24:16.957Z,11.97
2018-04-13T22:26:45.293Z,15.57
2018-04-13T22:29:12.904Z,15.97
2018-04-13T22:31:40.439Z,15.40
2018-04-13T22:34:08.697Z,14.93
2018-04-13T22:36:36.245Z,17.30
2018-04-13T22:39:03.736Z,15.17
2018-04-13T22:41:31.346Z,16.60
2018-04-13T22:43:58.857Z,15.90
2018-04-13T22:46:26.430Z,16.50
2018-04-13T22:48:53.946Z,14.97
2018-04-13T22:51:21.468Z,16.33
2018-04-13T22:53:49.088Z,16.53
2018-04-13T22:56:16.771Z,14.97
2018-04-13T22:58:44.282Z,15.03
2018-04-13T23:01:11.808Z,14.90
2018-04-13T23:03:39.452Z,14.73
2018-04-13T23:06:07.037Z,16.10
2018-04-13T23:08:34.561Z,14.30
2018-04-13T23:11:02.283Z,15.60
2018-04-13T23:13:30.597Z,16.40
2018-04-13T23:15:58.127Z,15.03
2018-04-13T23:18:26.396Z,17.90
2018-04-13T23:20:54.694Z,17.30
2018-04-13T23:23:22.974Z,17.53
2018-04-13T23:25:50.503Z,18.47
2018-04-13T23:28:18.784Z,19.00
2018-04-13T23:30:47.068Z,18.37
2018-04-13T23:33:15.414Z,19.80
2018-04-13T23:35:43.063Z,19.60
2018-04-13T23:38:10.670Z,19.87
2018-04-13T23:40:38.906Z,20.83
2018-04-13T23:43:06.449Z,21.50
2018-04-13T23:45:33.996Z,23.63
2018-04-13T23:48:01.523Z,21.60
2018-04-13T23:50:29.825Z,19.90
2018-04-13T23:52:57.378Z,21.27
2018-04-13T23:55:24.904Z,21.63
2018-04-13T23:57:53.481Z,22.00
